createdAt,value
2022-09-28T00:01:07.873Z,29.38
2022-09-28T00:03:35.409Z,29.10
2022-09-28T00:06:04.020Z,28.37
2022-09-28T00:08:31.569Z,28.92
2022-09-28T00:10:58.729Z,28.92
2022-09-28T00:13:26.015Z,28.29
2022-09-28T00:16:00.199Z,29.08
2022-09-28T00:18:27.576Z,28.75
2022-09-28T00:21:08.878Z,28.49
2022-09-28T00:23:57.807Z,28.26
2022-09-28T00:26:25.690Z,29.20
2022-09-28T00:28:56.286Z,28.73
2022-09-28T00:31:25.256Z,29.19
2022-09-28T00:33:53.158Z,28.70
2022-09-28T00:36:20.353Z,28.55
2022-09-28T00:38:47.948Z,28.31
2022-09-28T00:41:15.984Z,28.86
2022-09-28T00:43:43.245Z,29.22
2022-09-28T00:46:15.406Z,29.52
2022-09-28T00:48:47.863Z,28.94
2022-09-28T00:51:15.108Z,28.90
2022-09-28T00:53:44.489Z,29.21
2022-09-28T00:56:15.100Z,29.35
2022-09-28T00:58:45.185Z,29.40
2022-09-28T01:01:12.801Z,29.00
2022-09-28T01:03:45.654Z,29.11
2022-09-28T01:06:19.383Z,28.95
2022-09-28T01:08:48.427Z,29.01
2022-09-28T01:11:15.860Z,28.69
2022-09-28T01:13:44.030Z,29.04
2022-09-28T01:16:16.029Z,28.85
2022-09-28T01:19:03.724Z,28.58
2022-09-28T01:21:45.685Z,28.14
2022-09-28T01:24:13.257Z,29.18
2022-09-28T01:26:44.587Z,29.16
2022-09-28T01:29:21.627Z,28.75
2022-09-28T01:31:52.871Z,28.67
2022-09-28T01:34:35.077Z,29.04
2022-09-28T01:37:04.446Z,28.94
2022-09-28T01:39:34.854Z,28.78
2022-09-28T01:42:09.527Z,28.79
2022-09-28T01:44:40.547Z,28.62
2022-09-28T01:47:10.981Z,29.00
2022-09-28T01:49:51.916Z,28.46
2022-09-28T01:52:19.142Z,28.06
2022-09-28T01:54:52.856Z,29.17
2022-09-28T01:57:34.720Z,28.83
2022-09-28T02:00:06.717Z,27.99
2022-09-28T02:02:54.643Z,28.87
2022-09-28T02:05:31.166Z,28.33
2022-09-28T02:08:09.375Z,27.75
2022-09-28T02:10:42.781Z,28.31
2022-09-28T02:13:29.679Z,28.30
2022-09-28T02:16:00.553Z,28.55
2022-09-28T02:18:27.967Z,28.67
2022-09-28T02:21:00.821Z,28.98
2022-09-28T02:23:31.190Z,28.74
2022-09-28T02:26:02.232Z,28.32
2022-09-28T02:28:30.248Z,28.41
2022-09-28T02:30:57.500Z,27.60
2022-09-28T02:33:26.928Z,28.59
2022-09-28T02:35:54.331Z,28.86
2022-09-28T02:38:23.706Z,29.26
2022-09-28T02:41:02.701Z,29.48
2022-09-28T02:43:36.123Z,29.18
2022-09-28T02:46:09.389Z,28.96
2022-09-28T02:49:10.686Z,29.64
2022-09-28T02:51:59.103Z,28.50
2022-09-28T02:54:26.307Z,29.32
2022-09-28T02:57:12.419Z,29.15
2022-09-28T03:00:18.754Z,29.36
2022-09-28T03:02:59.250Z,29.44
2022-09-28T03:05:46.927Z,29.09
2022-09-28T03:08:23.592Z,29.05
2022-09-28T03:11:09.527Z,29.17
2022-09-28T03:13:37.446Z,28.97
2022-09-28T03:16:12.392Z,28.92
2022-09-28T03:18:41.496Z,28.08
2022-09-28T03:21:10.853Z,29.06
2022-09-28T03:23:38.394Z,28.79
2022-09-28T03:26:07.514Z,28.93
2022-09-28T03:28:36.340Z,29.02
2022-09-28T03:31:04.717Z,29.06
2022-09-28T03:33:32.155Z,28.66
2022-09-28T03:35:59.462Z,28.33
2022-09-28T03:38:26.751Z,28.54
2022-09-28T03:40:56.229Z,29.01
2022-09-28T03:43:24.502Z,27.92
2022-09-28T03:45:54.225Z,28.65
2022-09-28T03:48:33.035Z,28.92
2022-09-28T03:51:01.742Z,28.50
2022-09-28T03:53:29.903Z,28.20
2022-09-28T03:56:07.664Z,28.68
2022-09-28T03:58:35.579Z,28.54
2022-09-28T04:01:04.922Z,27.38
2022-09-28T04:03:32.730Z,29.15
2022-09-28T04:06:00.173Z,28.55
2022-09-28T04:08:30.040Z,29.00
2022-09-28T04:10:57.951Z,28.82
2022-09-28T04:13:25.725Z,28.63
2022-09-28T04:15:54.337Z,28.49
2022-09-28T04:18:22.244Z,28.61
2022-09-28T04:21:13.675Z,28.62
2022-09-28T04:23:45.112Z,28.77
2022-09-28T04:26:17.138Z,28.82
2022-09-28T04:29:07.002Z,28.85
2022-09-28T04:31:40.605Z,28.73
2022-09-28T04:34:08.630Z,28.17
2022-09-28T04:36:35.889Z,28.42
2022-09-28T04:39:03.558Z,28.55
2022-09-28T04:41:32.199Z,28.65
2022-09-28T04:43:59.584Z,28.76
2022-09-28T04:46:26.908Z,27.88
2022-09-28T04:49:29.275Z,29.00
2022-09-28T04:52:06.038Z,28.50
2022-09-28T04:54:34.997Z,27.87
2022-09-28T04:57:03.457Z,28.96
2022-09-28T04:59:30.786Z,28.46
2022-09-28T05:01:58.097Z,28.94
2022-09-28T05:04:43.702Z,28.10
2022-09-28T05:07:49.722Z,28.51
2022-09-28T05:10:18.727Z,28.36
2022-09-28T05:12:45.922Z,28.47
2022-09-28T05:15:13.299Z,28.20
2022-09-28T05:17:41.133Z,28.26
2022-09-28T05:20:35.164Z,28.63
2022-09-28T05:23:02.507Z,28.13
2022-09-28T05:25:29.746Z,28.87
2022-09-28T05:28:09.959Z,29.15
2022-09-28T05:31:01.086Z,28.77
2022-09-28T05:33:51.404Z,28.20
2022-09-28T05:36:18.800Z,28.34
2022-09-28T05:38:46.431Z,28.44
2022-09-28T05:41:14.404Z,28.86
2022-09-28T05:43:41.640Z,28.25
2022-09-28T05:46:09.086Z,27.95
2022-09-28T05:48:40.021Z,28.96
2022-09-28T05:51:07.674Z,28.79
2022-09-28T05:53:35.263Z,28.61
2022-09-28T05:56:03.332Z,28.43
2022-09-28T05:58:32.545Z,28.69
2022-09-28T06:01:00.463Z,28.64
2022-09-28T06:03:27.702Z,28.78
2022-09-28T06:05:54.917Z,28.11
2022-09-28T06:08:22.279Z,28.74
2022-09-28T06:11:01.763Z,28.16
2022-09-28T06:13:29.233Z,28.64
2022-09-28T06:15:56.571Z,28.50
2022-09-28T06:18:24.168Z,28.38
2022-09-28T06:21:23.633Z,28.75
2022-09-28T06:23:51.129Z,28.17
2022-09-28T06:26:19.129Z,28.66
2022-09-28T06:28:47.149Z,28.12
2022-09-28T06:31:14.856Z,28.41
2022-09-28T06:33:48.413Z,28.13
2022-09-28T06:36:15.976Z,28.51
2022-09-28T06:38:43.360Z,28.73
2022-09-28T06:41:11.324Z,28.41
2022-09-28T06:43:40.540Z,28.15
2022-09-28T06:46:28.034Z,28.38
2022-09-28T06:49:18.641Z,28.84
2022-09-28T06:52:12.688Z,28.43
2022-09-28T06:55:03.984Z,28.55
2022-09-28T06:57:43.003Z,28.57
2022-09-28T07:00:11.734Z,28.63
2022-09-28T07:02:39.058Z,28.55
2022-09-28T07:05:29.645Z,28.45
2022-09-28T07:08:15.982Z,29.11
2022-09-28T07:11:07.344Z,28.81
2022-09-28T07:14:13.074Z,28.86
2022-09-28T07:17:10.339Z,28.38
2022-09-28T07:19:30.517Z,28.59
2022-09-28T07:22:04.847Z,28.46
2022-09-28T07:24:33.189Z,28.80
2022-09-28T07:27:32.223Z,28.82
2022-09-28T07:30:29.960Z,29.20
2022-09-28T07:33:06.219Z,28.79
2022-09-28T07:35:52.370Z,29.40
2022-09-28T07:38:21.217Z,28.75
2022-09-28T07:41:07.808Z,28.84
2022-09-28T07:43:36.253Z,28.81
2022-09-28T07:46:04.562Z,29.49
2022-09-28T07:48:36.785Z,28.84
2022-09-28T07:51:24.327Z,28.96
2022-09-28T07:54:14.339Z,28.99
2022-09-28T07:57:07.758Z,28.02
2022-09-28T08:00:02.409Z,28.63
2022-09-28T08:02:41.501Z,28.27
2022-09-28T08:05:10.139Z,28.16
2022-09-28T08:07:38.405Z,28.44
2022-09-28T08:10:09.444Z,28.59
2022-09-28T08:13:01.990Z,28.12
2022-09-28T08:15:51.217Z,28.32
2022-09-28T08:18:32.534Z,28.77
2022-09-28T08:21:20.016Z,29.08
2022-09-28T08:23:48.030Z,28.47
2022-09-28T08:26:16.538Z,28.51
2022-09-28T08:28:47.076Z,29.05
2022-09-28T08:31:34.615Z,29.04
2022-09-28T08:34:22.603Z,28.86
2022-09-28T08:37:12.642Z,29.31
2022-09-28T08:39:58.798Z,28.88
2022-09-28T08:43:18.611Z,28.21
2022-09-28T08:46:23.906Z,28.14
2022-09-28T08:49:31.129Z,28.84
2022-09-28T08:52:26.618Z,29.65
2022-09-28T08:55:25.428Z,29.05
2022-09-28T08:57:58.824Z,28.64
2022-09-28T09:00:38.220Z,29.17
2022-09-28T09:03:06.796Z,29.51
2022-09-28T09:06:07.507Z,28.95
2022-09-28T09:09:07.819Z,29.68
2022-09-28T09:11:50.194Z,28.99
2022-09-28T09:14:36.457Z,29.36
2022-09-28T09:17:22.435Z,28.48
2022-09-28T09:20:33.671Z,28.65
2022-09-28T09:23:28.416Z,29.36
2022-09-28T09:26:00.604Z,29.89
2022-09-28T09:28:46.307Z,29.37
2022-09-28T09:31:27.319Z,29.36
2022-09-28T09:34:01.410Z,28.95
2022-09-28T09:37:00.841Z,28.91
2022-09-28T09:40:03.864Z,28.78
2022-09-28T09:43:08.477Z,28.96
2022-09-28T09:45:53.817Z,29.18
2022-09-28T09:48:45.838Z,28.82
2022-09-28T09:51:18.378Z,29.25
2022-09-28T09:54:00.633Z,29.56
2022-09-28T09:56:39.677Z,28.78
2022-09-28T09:59:15.880Z,28.88
2022-09-28T10:02:12.437Z,28.62
2022-09-28T10:04:49.655Z,29.56
2022-09-28T10:07:45.108Z,28.61
2022-09-28T10:10:16.761Z,29.08
2022-09-28T10:12:50.058Z,29.34
2022-09-28T10:15:24.042Z,28.44
2022-09-28T10:18:15.811Z,28.76
2022-09-28T10:21:02.116Z,28.91
2022-09-28T10:23:37.991Z,29.29
2022-09-28T10:26:25.734Z,28.95
2022-09-28T10:29:14.745Z,28.90
2022-09-28T10:31:45.292Z,28.45
2022-09-28T10:34:35.590Z,27.45
2022-09-28T10:37:12.399Z,28.95
2022-09-28T10:39:58.336Z,28.46
2022-09-28T10:42:30.640Z,28.78
2022-09-28T10:45:25.676Z,29.54
2022-09-28T10:47:54.077Z,28.94
2022-09-28T10:50:26.579Z,28.64
2022-09-28T10:53:31.618Z,28.94
2022-09-28T10:56:22.538Z,28.04
2022-09-28T10:58:58.085Z,27.97
2022-09-28T11:01:43.058Z,28.71
2022-09-28T11:04:19.279Z,29.12
2022-09-28T11:06:47.089Z,27.99
2022-09-28T11:09:30.780Z,28.42
2022-09-28T11:12:06.054Z,28.98
2022-09-28T11:14:42.470Z,28.82
2022-09-28T11:17:38.862Z,28.54
2022-09-28T11:20:27.932Z,28.19
2022-09-28T11:23:00.641Z,28.73
2022-09-28T11:25:33.417Z,28.69
2022-09-28T11:28:04.461Z,29.53
2022-09-28T11:30:42.801Z,28.31
2022-09-28T11:33:28.678Z,28.80
2022-09-28T11:36:19.148Z,29.25
2022-09-28T11:38:53.762Z,27.70
2022-09-28T11:42:02.377Z,28.40
2022-09-28T11:44:46.637Z,27.48
2022-09-28T11:47:37.111Z,28.86
2022-09-28T11:50:23.011Z,28.51
2022-09-28T11:52:54.715Z,28.19
2022-09-28T11:55:22.151Z,28.42
2022-09-28T11:57:56.633Z,29.00
2022-09-28T12:00:24.755Z,28.67
2022-09-28T12:03:00.745Z,28.07
2022-09-28T12:05:30.730Z,28.44
2022-09-28T12:08:18.283Z,28.27
2022-09-28T12:11:06.047Z,27.88
2022-09-28T12:14:18.330Z,28.84
2022-09-28T12:17:07.448Z,29.24
2022-09-28T12:19:35.360Z,28.61
2022-09-28T12:22:10.095Z,27.73
2022-09-28T12:24:40.617Z,27.89
2022-09-28T12:27:14.624Z,28.46
2022-09-28T12:30:02.307Z,27.79
2022-09-28T12:32:38.535Z,28.60
2022-09-28T12:35:13.799Z,29.14
2022-09-28T12:38:08.765Z,28.91
2022-09-28T12:40:38.282Z,27.82
2022-09-28T12:43:05.550Z,28.69
2022-09-28T12:46:11.707Z,29.10
2022-09-28T12:49:33.141Z,28.40
2022-09-28T12:51:54.097Z,29.03
2022-09-28T12:54:21.338Z,28.75
2022-09-28T12:57:21.074Z,28.75
2022-09-28T13:00:01.780Z,28.89
2022-09-28T13:02:47.799Z,29.32
2022-09-28T13:05:15.298Z,29.43
2022-09-28T13:07:50.077Z,29.29
2022-09-28T13:10:23.975Z,29.57
2022-09-28T13:12:51.355Z,28.36
2022-09-28T13:15:57.001Z,28.46
2022-09-28T13:18:27.602Z,28.23
2022-09-28T13:20:54.859Z,28.54
2022-09-28T13:23:23.983Z,29.22
2022-09-28T13:26:14.025Z,29.45
2022-09-28T13:28:43.165Z,28.48
2022-09-28T13:31:10.997Z,29.06
2022-09-28T13:33:40.125Z,28.59
2022-09-28T13:36:28.685Z,29.21
2022-09-28T13:38:57.159Z,28.37
2022-09-28T13:41:31.739Z,28.48
2022-09-28T13:44:13.321Z,28.28
2022-09-28T13:46:49.336Z,28.56
2022-09-28T13:49:17.404Z,28.71
2022-09-28T13:51:55.383Z,28.32
2022-09-28T13:54:41.338Z,28.80
2022-09-28T13:57:20.320Z,28.34
2022-09-28T13:59:53.821Z,29.01
2022-09-28T14:02:26.923Z,28.96
2022-09-28T14:04:57.345Z,29.12
2022-09-28T14:07:44.770Z,29.26
2022-09-28T14:10:44.138Z,28.88
2022-09-28T14:13:12.265Z,29.16
2022-09-28T14:15:42.039Z,28.98
2022-09-28T14:18:21.348Z,29.07
2022-09-28T14:20:55.407Z,28.57
2022-09-28T14:23:31.549Z,29.22
2022-09-28T14:26:02.732Z,29.48
2022-09-28T14:28:32.826Z,29.58
2022-09-28T14:31:06.565Z,29.96
2022-09-28T14:33:34.800Z,29.89
2022-09-28T14:36:05.002Z,29.59
2022-09-28T14:38:56.193Z,29.53
2022-09-28T14:41:41.872Z,29.64
2022-09-28T14:44:09.952Z,29.33
2022-09-28T14:46:43.476Z,29.59
2022-09-28T14:49:19.832Z,29.52
2022-09-28T14:51:53.044Z,29.79
2022-09-28T14:54:21.196Z,29.85
2022-09-28T14:56:48.449Z,29.25
2022-09-28T14:59:26.251Z,29.12
2022-09-28T15:02:14.420Z,29.31
2022-09-28T15:04:44.013Z,29.58
2022-09-28T15:07:21.698Z,30.00
2022-09-28T15:09:50.503Z,29.49
2022-09-28T15:12:18.944Z,28.93
2022-09-28T15:14:49.762Z,29.12
2022-09-28T15:17:21.222Z,29.36
2022-09-28T15:19:50.265Z,29.50
2022-09-28T15:22:18.151Z,29.39
2022-09-28T15:24:53.661Z,29.35
2022-09-28T15:27:20.975Z,29.41
2022-09-28T15:30:01.662Z,29.80
2022-09-28T15:32:29.819Z,29.72
2022-09-28T15:34:58.558Z,29.71
2022-09-28T15:37:29.495Z,29.92
2022-09-28T15:39:58.297Z,30.03
2022-09-28T15:42:25.695Z,30.25
2022-09-28T15:45:07.940Z,29.60
2022-09-28T15:47:36.250Z,30.23
2022-09-28T15:50:05.994Z,29.60
2022-09-28T15:52:43.777Z,30.26
2022-09-28T15:55:23.691Z,30.05
2022-09-28T15:57:51.266Z,30.04
2022-09-28T16:00:21.163Z,29.68
2022-09-28T16:03:19.202Z,29.57
2022-09-28T16:05:48.957Z,29.63
2022-09-28T16:08:25.043Z,29.57
2022-09-28T16:10:54.979Z,29.61
2022-09-28T16:13:23.274Z,29.50
2022-09-28T16:16:00.458Z,29.73
2022-09-28T16:18:29.497Z,29.51
2022-09-28T16:21:15.643Z,29.56
2022-09-28T16:23:50.041Z,29.35
2022-09-28T16:26:28.751Z,29.22
2022-09-28T16:28:56.049Z,29.45
2022-09-28T16:31:27.366Z,29.35
2022-09-28T16:33:54.632Z,29.32
2022-09-28T16:36:22.773Z,29.25
2022-09-28T16:38:50.240Z,29.16
2022-09-28T16:41:19.917Z,28.90
2022-09-28T16:43:47.496Z,29.19
2022-09-28T16:46:17.583Z,29.55
2022-09-28T16:48:49.840Z,29.53
2022-09-28T16:51:21.329Z,29.54
2022-09-28T16:54:07.968Z,29.46
2022-09-28T16:56:36.342Z,29.31
2022-09-28T16:59:03.945Z,29.60
2022-09-28T17:01:31.538Z,29.71
2022-09-28T17:03:58.911Z,29.45
2022-09-28T17:06:26.853Z,29.43
2022-09-28T17:08:56.792Z,29.27
2022-09-28T17:11:25.099Z,29.05
2022-09-28T17:13:59.010Z,29.59
2022-09-28T17:16:49.743Z,29.15
2022-09-28T17:19:20.755Z,29.32
2022-09-28T17:21:48.834Z,29.63
2022-09-28T17:24:16.175Z,29.67
2022-09-28T17:26:44.476Z,29.16
2022-09-28T17:29:14.590Z,29.43
2022-09-28T17:31:42.967Z,29.33
2022-09-28T17:34:11.449Z,29.30
2022-09-28T17:36:40.553Z,29.78
2022-09-28T17:39:11.593Z,29.18
2022-09-28T17:41:38.989Z,29.49
2022-09-28T17:44:06.695Z,29.44
2022-09-28T17:46:36.224Z,29.35
2022-09-28T17:49:04.552Z,29.32
2022-09-28T17:51:32.823Z,29.59
2022-09-28T17:54:01.245Z,29.71
2022-09-28T17:56:32.151Z,29.65
2022-09-28T17:59:01.122Z,29.59
2022-09-28T18:01:33.977Z,29.55
2022-09-28T18:04:05.620Z,29.57
2022-09-28T18:06:33.826Z,29.57
2022-09-28T18:09:03.179Z,29.53
2022-09-28T18:11:31.516Z,29.71
2022-09-28T18:13:58.689Z,28.87
2022-09-28T18:16:28.022Z,29.81
2022-09-28T18:18:55.413Z,29.92
2022-09-28T18:21:22.575Z,29.62
2022-09-28T18:23:49.772Z,29.83
2022-09-28T18:26:19.623Z,30.17
2022-09-28T18:28:46.968Z,29.87
2022-09-28T18:31:15.553Z,29.97
2022-09-28T18:33:43.476Z,30.04
2022-09-28T18:36:10.741Z,29.88
2022-09-28T18:38:38.557Z,29.99
2022-09-28T18:41:16.145Z,29.90
2022-09-28T18:43:48.932Z,29.41
2022-09-28T18:46:18.296Z,29.68
2022-09-28T18:48:47.265Z,29.42
2022-09-28T18:51:15.041Z,29.86
2022-09-28T18:53:42.564Z,29.59
2022-09-28T18:56:11.572Z,29.45
2022-09-28T18:58:39.760Z,28.66
2022-09-28T19:04:00.637Z,29.25
2022-09-28T19:06:28.222Z,29.45
2022-09-28T19:08:55.957Z,29.55
2022-09-28T19:11:23.688Z,29.50
2022-09-28T19:13:52.477Z,29.62
2022-09-28T19:16:25.270Z,30.07
2022-09-28T19:18:53.724Z,30.15
2022-09-28T19:21:21.130Z,30.22
2022-09-28T19:23:49.812Z,30.04
2022-09-28T19:26:22.776Z,30.08
2022-09-28T19:28:50.265Z,30.19
2022-09-28T19:31:17.454Z,30.22
2022-09-28T19:33:48.248Z,30.10
2022-09-28T19:36:17.794Z,29.82
2022-09-28T19:38:45.415Z,30.23
2022-09-28T19:41:39.195Z,30.28
2022-09-28T19:44:11.055Z,30.43
2022-09-28T19:46:40.575Z,30.10
2022-09-28T19:49:15.124Z,30.31
2022-09-28T19:52:01.620Z,30.27
2022-09-28T19:54:36.195Z,30.39
2022-09-28T19:57:07.986Z,30.30
2022-09-28T19:59:36.834Z,30.35
2022-09-28T20:02:05.414Z,30.59
2022-09-28T20:04:32.900Z,30.09
2022-09-28T20:07:00.152Z,30.26
2022-09-28T20:09:27.410Z,30.26
2022-09-28T20:11:55.145Z,30.49
2022-09-28T20:14:24.683Z,30.13
2022-09-28T20:16:55.531Z,30.28
2022-09-28T20:19:23.365Z,30.11
2022-09-28T20:21:50.838Z,30.15
2022-09-28T20:24:18.252Z,29.82
2022-09-28T20:26:46.052Z,30.48
2022-09-28T20:29:13.418Z,30.33
2022-09-28T20:31:41.053Z,30.46
2022-09-28T20:34:09.426Z,29.79
2022-09-28T20:36:36.621Z,29.85
2022-09-28T20:39:04.182Z,29.82
2022-09-28T20:41:36.721Z,30.15
2022-09-28T20:44:06.314Z,30.07
2022-09-28T20:46:34.973Z,29.80
2022-09-28T20:49:02.601Z,29.94
2022-09-28T20:51:30.049Z,29.81
2022-09-28T20:53:58.222Z,30.42
2022-09-28T20:56:26.577Z,30.48
2022-09-28T20:58:54.319Z,30.28
2022-09-28T21:01:23.050Z,30.30
2022-09-28T21:03:54.114Z,30.35
2022-09-28T21:06:22.361Z,30.34
2022-09-28T21:08:49.820Z,30.06
2022-09-28T21:11:18.488Z,30.11
2022-09-28T21:13:45.978Z,30.32
2022-09-28T21:16:14.873Z,30.05
2022-09-28T21:18:42.270Z,30.64
2022-09-28T21:21:11.601Z,30.24
2022-09-28T21:23:39.062Z,30.19
2022-09-28T21:26:12.257Z,30.02
2022-09-28T21:28:40.225Z,29.97
2022-09-28T21:31:09.178Z,30.21
2022-09-28T21:33:36.525Z,30.29
2022-09-28T21:36:04.791Z,30.39
2022-09-28T21:38:32.173Z,30.27
2022-09-28T21:40:59.876Z,30.52
2022-09-28T21:43:27.897Z,30.25
2022-09-28T21:45:55.837Z,30.23
2022-09-28T21:48:24.049Z,30.51
2022-09-28T21:50:58.824Z,30.13
2022-09-28T21:53:27.426Z,30.11
2022-09-28T21:55:55.868Z,30.17
2022-09-28T21:58:24.092Z,30.36
2022-09-28T22:01:01.317Z,30.36
2022-09-28T22:03:29.471Z,29.66
2022-09-28T22:05:57.040Z,29.95
2022-09-28T22:08:24.791Z,30.09
2022-09-28T22:11:06.221Z,30.31
2022-09-28T22:13:34.735Z,30.25
2022-09-28T22:16:02.161Z,30.14
2022-09-28T22:18:30.270Z,30.13
2022-09-28T22:21:06.661Z,30.02
2022-09-28T22:23:34.174Z,30.23
2022-09-28T22:26:12.659Z,30.19
2022-09-28T22:28:44.610Z,30.43
2022-09-28T22:31:11.886Z,30.42
2022-09-28T22:33:39.074Z,30.23
2022-09-28T22:36:07.950Z,30.22
2022-09-28T22:38:35.420Z,29.99
2022-09-28T22:41:05.325Z,30.04
2022-09-28T22:43:33.278Z,30.15
2022-09-28T22:46:11.330Z,30.29
2022-09-28T22:48:39.118Z,30.50
2022-09-28T22:51:06.625Z,30.70
2022-09-28T22:53:34.712Z,29.58
2022-09-28T22:56:05.436Z,29.72
2022-09-28T22:58:36.138Z,30.11
2022-09-28T23:01:17.843Z,29.95
2022-09-28T23:03:45.666Z,30.33
2022-09-28T23:06:13.828Z,30.57
2022-09-28T23:08:41.093Z,30.31
2022-09-28T23:11:08.594Z,30.10
2022-09-28T23:13:38.355Z,30.54
2022-09-28T23:16:07.112Z,30.06
2022-09-28T23:18:36.139Z,30.32
2022-09-28T23:21:04.863Z,29.89
2022-09-28T23:23:32.372Z,30.05
2022-09-28T23:26:00.073Z,30.19
2022-09-28T23:28:27.308Z,30.24
2022-09-28T23:30:54.736Z,30.33
2022-09-28T23:33:22.436Z,30.23
2022-09-28T23:35:49.838Z,30.01
2022-09-28T23:38:18.312Z,30.15
2022-09-28T23:40:46.535Z,29.83
2022-09-28T23:43:14.460Z,29.94
2022-09-28T23:45:44.833Z,29.93
2022-09-28T23:48:15.027Z,29.86
2022-09-28T23:50:43.252Z,29.94
2022-09-28T23:53:11.055Z,30.19
2022-09-28T23:55:38.485Z,30.41
2022-09-28T23:58:05.822Z,30.26
